Miami International Airport
KMIA : now visible

Airfield :











YOU CAN JOIN US ON...

 
LOGIN :

Register | Disclaimer

   EN    FR    IT 

 









Legend :    VFR   Marginal VFR   IFR   Intensive IFR   Very Intensive IFR
Visi :
Ceiling :
>= 8 km
>= 3000ft
5 to 8 km
1000 to 3000 ft
1500m to 5 km
500 to 1000 ft
800 to 1500m
200 to 500 ft
< 800m
< 200 ft
Symbols :   Thunderstorms  Fog  Heavy snow  Heavy precipitations  Wind > 20 kt






- Airport Elevation : 8 ft
- IATA code : MIA


KMIA - Miami International

CURRENT METAR :
  • 250853Z 11010KT 6SM -RA BR FEW012 BKN065 OVC085 24/24 A2986 RMK AO2 SLP111 P0011 60055 T02440239 55011 $

EXPIRED METARs :
  • 250753Z 11010G19KT 6SM -RA BR FEW015 SCT025 OVC110 25/24 A2986 RMK AO2 SLP110 CB MOV NW P0011 T02500239 $
  • 250740Z 10013KT 6SM -RA BR FEW013 SCT022 OVC120 25/24 A2985 RMK AO2 CB MOV NW P0010 T02500239 $
  • 250653Z 11016G22KT 4SM RA BR FEW007 BKN015CB OVC022 25/24 A2986 RMK AO2 LTG DSNT SW SLP113 CB NW MOV NW P0033 T02500239 $
  • 250633Z 12008G16KT 4SM RA BR SCT007 BKN017CB OVC025 24/23 A2987 RMK AO2 VIS W-NW 1 1/4 CB OHD-W-NW MOV NW P0026 T02440233 $
  • 250620Z 10012G19KT 3/4SM R09/P6000FT RA BR SCT007 BKN015CB OVC025 23/23 A2988 RMK AO2 CB OHD MOV NW P0019 T02330228 $
  • 250607Z 10014KT 1SM R09/4500VP6000FT +RA BR FEW009 BKN015CB OVC030 24/23 A2989 RMK AO2 CB OHD-E-SE MOV NW P0006 T02390233 $

TAF KMIA
Valid from the 25 at 09:00 until the 26 at 12:00 UTC


250856Z 2509/2612 12012KT 6SM SHRA VCTS SCT010CB BKN025
FM252300 12014KT P6SM VCTS SCT020CB BKN040 OVC100
FM260300 17010KT P6SM VCSH SCT025 BKN050
KZMA FIR / North America



MET'MAP, your aeronautical weather chart ! - Copyright ORBIFLY December 2007 - Disclaimer

ORBIFLY MET'MAP TEAM :

Programming & Development : Alexandra Zaïnal
Concept & original design : Baudouin d'Aumeries
Assistance for programming : Marc-Olivier Méhu
Technical & hardware support : Manuel Goepfert

Contact : metmap@orbifly.com




SOURCES & CREDITS :

   NOAA       Earth
Advisory